createdAt,value
2018-07-10T00:00:55.134Z,99587.59
2018-07-10T00:03:35.092Z,99587.27
2018-07-10T00:07:31.829Z,99578.55
2018-07-10T00:12:20.685Z,99567.82
2018-07-10T00:14:49.707Z,99552.68
2018-07-10T00:17:18.721Z,99558.97
2018-07-10T00:19:47.806Z,99550.19
2018-07-10T00:22:16.904Z,99542.19
2018-07-10T00:24:45.917Z,99545.51
2018-07-10T00:27:14.907Z,99549.60
2018-07-10T00:29:43.918Z,99553.75
2018-07-10T00:32:13.017Z,99553.22
2018-07-10T00:34:41.979Z,99561.16
2018-07-10T00:37:10.969Z,99566.86
2018-07-10T00:39:39.963Z,99567.93
2018-07-10T00:42:09.045Z,99569.88
2018-07-10T00:44:38.112Z,99572.09
2018-07-10T00:47:07.080Z,99574.83
2018-07-10T00:49:36.194Z,99575.66
2018-07-10T00:52:05.175Z,99581.81
2018-07-10T00:54:34.193Z,99577.64
2018-07-10T00:57:03.420Z,99575.52
2018-07-10T00:59:32.400Z,99564.00
2018-07-10T01:02:01.453Z,99561.80
2018-07-10T01:04:30.428Z,99557.50
2018-07-10T01:06:59.542Z,99556.42
2018-07-10T01:09:28.527Z,99557.25
2018-07-10T01:11:57.495Z,99563.01
2018-07-10T01:14:26.603Z,99563.01
2018-07-10T01:16:55.584Z,99568.52
2018-07-10T01:19:24.601Z,99565.79
2018-07-10T01:21:53.569Z,99567.16
2018-07-10T01:24:22.749Z,99561.99
2018-07-10T01:26:51.768Z,99563.30
2018-07-10T01:29:26.130Z,99563.76
2018-07-10T01:31:55.596Z,99564.30
2018-07-10T01:34:24.765Z,99567.05
2018-07-10T01:36:55.156Z,99566.27
2018-07-10T01:39:24.128Z,99561.88
2018-07-10T01:41:53.160Z,99560.22
2018-07-10T01:44:22.200Z,99558.56
2018-07-10T01:46:51.232Z,99565.39
2018-07-10T01:49:20.252Z,99569.77
2018-07-10T01:51:49.237Z,99560.22
2018-07-10T01:54:18.318Z,99569.23
2018-07-10T01:56:47.357Z,99561.59
2018-07-10T01:59:16.820Z,99560.22
2018-07-10T02:01:45.924Z,99558.83
2018-07-10T02:04:14.981Z,99559.08
2018-07-10T02:06:43.974Z,99560.44
2018-07-10T02:09:13.052Z,99565.02
2018-07-10T02:11:42.024Z,99572.90
2018-07-10T02:14:11.001Z,99567.15
2018-07-10T02:16:39.977Z,99557.89
2018-07-10T02:19:08.955Z,99553.75
2018-07-10T02:21:38.021Z,99553.22
2018-07-10T02:24:07.053Z,99552.14
2018-07-10T02:26:36.113Z,99554.58
2018-07-10T02:29:05.238Z,99558.19
2018-07-10T02:31:34.372Z,99552.20
2018-07-10T02:34:03.392Z,99553.03
2018-07-10T02:36:32.465Z,99554.69
2018-07-10T02:39:01.536Z,99558.78
2018-07-10T02:41:30.534Z,99556.11
2018-07-10T02:44:03.652Z,99555.28
2018-07-10T02:46:33.783Z,99549.52
2018-07-10T02:49:10.713Z,99521.09
2018-07-10T02:51:45.564Z,99552.79
2018-07-10T02:54:15.561Z,99549.71
2018-07-10T02:56:45.441Z,99553.43
2018-07-10T02:59:14.427Z,99555.56
2018-07-10T03:01:43.409Z,99554.50
2018-07-10T03:04:12.656Z,99555.38
2018-07-10T03:06:41.667Z,99555.17
2018-07-10T03:09:10.630Z,99560.68
2018-07-10T03:11:39.656Z,99559.91
2018-07-10T03:14:10.228Z,99557.71
2018-07-10T03:16:39.774Z,99561.03
2018-07-10T03:19:10.375Z,99560.22
2018-07-10T03:21:39.416Z,99559.16
2018-07-10T03:24:08.889Z,99555.06
2018-07-10T03:26:37.989Z,99560.52
2018-07-10T03:29:07.207Z,99562.77
2018-07-10T03:31:36.167Z,99561.41
2018-07-10T03:34:05.225Z,99561.11
2018-07-10T03:36:34.246Z,99562.47
2018-07-10T03:39:04.952Z,99569.59
2018-07-10T03:41:34.117Z,99564.72
2018-07-10T03:44:03.188Z,99570.17
2018-07-10T03:46:32.155Z,99576.78
2018-07-10T03:49:01.341Z,99580.39
2018-07-10T03:51:30.402Z,99577.96
2018-07-10T03:53:59.744Z,99582.59
2018-07-10T03:56:29.004Z,99577.96
2018-07-10T03:58:59.727Z,99579.03
2018-07-10T04:01:37.003Z,99583.42
2018-07-10T04:04:06.177Z,99584.25
2018-07-10T04:06:35.652Z,99589.70
2018-07-10T04:09:06.705Z,99586.97
2018-07-10T04:11:36.506Z,99587.56
2018-07-10T04:14:05.676Z,99588.13
2018-07-10T04:16:34.732Z,99593.93
2018-07-10T04:19:03.721Z,99597.00
2018-07-10T04:21:34.601Z,99593.23
2018-07-10T04:24:21.266Z,99595.55
2018-07-10T04:27:33.239Z,99596.60
2018-07-10T04:30:14.305Z,99596.58
2018-07-10T04:32:43.449Z,99583.91
2018-07-10T04:35:18.432Z,99585.28
2018-07-10T04:37:50.236Z,99593.22
2018-07-10T04:40:20.886Z,99583.43
2018-07-10T04:42:56.059Z,99588.66
2018-07-10T04:45:41.432Z,99589.69
2018-07-10T04:48:25.093Z,99590.97
2018-07-10T04:50:57.352Z,99592.70
2018-07-10T04:53:34.917Z,99583.33
2018-07-10T04:56:04.349Z,99588.77
2018-07-10T04:58:33.822Z,99589.34
2018-07-10T05:01:04.369Z,99589.38
2018-07-10T05:03:33.705Z,99593.78
2018-07-10T05:06:05.642Z,99594.61
2018-07-10T05:08:34.808Z,99587.27
2018-07-10T05:11:03.976Z,99592.23
2018-07-10T05:13:32.986Z,99591.11
2018-07-10T05:16:04.820Z,99598.39
2018-07-10T05:18:34.722Z,99602.24
2018-07-10T05:21:15.700Z,99599.25
2018-07-10T05:23:44.953Z,99604.73
2018-07-10T05:26:17.104Z,99606.05
2018-07-10T05:28:51.815Z,99605.80
2018-07-10T05:31:20.829Z,99604.33
2018-07-10T05:33:51.372Z,99604.37
2018-07-10T05:36:22.689Z,99606.66
2018-07-10T05:38:56.125Z,99599.09
2018-07-10T05:41:25.182Z,99603.00
2018-07-10T05:43:54.950Z,99607.34
2018-07-10T05:46:25.325Z,99600.45
2018-07-10T05:49:02.398Z,99599.88
2018-07-10T05:51:33.013Z,99596.28
2018-07-10T05:54:05.829Z,99604.86
2018-07-10T05:56:35.020Z,99604.66
2018-07-10T05:59:05.896Z,99604.41
2018-07-10T06:01:36.252Z,99602.72
2018-07-10T06:04:05.359Z,99603.61
2018-07-10T06:06:34.313Z,99599.02
2018-07-10T06:09:04.059Z,99598.76
2018-07-10T06:11:33.077Z,99598.25
2018-07-10T06:14:02.172Z,99603.13
2018-07-10T06:16:31.261Z,99604.13
2018-07-10T06:19:00.318Z,99605.39
2018-07-10T06:21:36.027Z,99612.97
2018-07-10T06:24:10.289Z,99607.94
2018-07-10T06:26:42.229Z,99607.39
2018-07-10T06:29:12.316Z,99608.77
2018-07-10T06:31:49.402Z,99615.32
2018-07-10T06:34:20.472Z,99610.48
2018-07-10T06:37:08.366Z,99611.85
2018-07-10T06:39:37.615Z,99609.79
2018-07-10T06:42:10.194Z,99613.64
2018-07-10T06:44:39.821Z,99608.20
2018-07-10T06:47:20.982Z,99609.69
2018-07-10T06:49:50.418Z,99608.20
2018-07-10T06:52:21.931Z,99607.45
2018-07-10T06:55:21.678Z,99611.28
2018-07-10T06:57:56.287Z,99614.84
2018-07-10T07:00:25.916Z,99613.48
2018-07-10T07:02:55.138Z,99622.55
2018-07-10T07:05:24.084Z,99625.27
2018-07-10T07:07:53.360Z,99618.63
2018-07-10T07:10:22.392Z,99623.48
2018-07-10T07:12:51.354Z,99622.53
2018-07-10T07:15:21.464Z,99633.14
2018-07-10T07:17:52.071Z,99627.30
2018-07-10T07:20:22.077Z,99626.34
2018-07-10T07:22:51.561Z,99627.91
2018-07-10T07:25:20.588Z,99628.27
2018-07-10T07:27:49.681Z,99626.77
2018-07-10T07:30:18.708Z,99627.50
2018-07-10T07:32:47.886Z,99624.84
2018-07-10T07:35:16.857Z,99626.84
2018-07-10T07:37:45.933Z,99625.30
2018-07-10T07:40:14.957Z,99627.63
2018-07-10T07:42:43.948Z,99621.59
2018-07-10T07:45:12.956Z,99621.39
2018-07-10T07:47:41.911Z,99630.45
2018-07-10T07:50:10.945Z,99639.20
2018-07-10T07:52:40.039Z,99637.75
2018-07-10T07:55:09.109Z,99635.09
2018-07-10T07:57:38.119Z,99640.63
2018-07-10T08:00:07.170Z,99635.97
2018-07-10T08:02:36.214Z,99643.11
2018-07-10T08:05:05.384Z,99636.48
2018-07-10T08:07:34.457Z,99633.72
2018-07-10T08:10:03.401Z,99639.64
2018-07-10T08:12:32.892Z,99637.66
2018-07-10T08:15:02.834Z,99633.20
2018-07-10T08:17:33.837Z,99631.64
2018-07-10T08:20:02.848Z,99634.45
2018-07-10T08:22:31.819Z,99635.13
2018-07-10T08:25:00.826Z,99640.38
2018-07-10T08:27:29.965Z,99640.83
2018-07-10T08:29:59.260Z,99636.08
2018-07-10T08:32:30.007Z,99637.13
2018-07-10T08:35:29.986Z,99631.41
2018-07-10T08:37:58.971Z,99638.84
2018-07-10T08:40:28.033Z,99636.96
2018-07-10T08:42:57.145Z,99633.93
2018-07-10T08:45:26.250Z,99629.28
2018-07-10T08:47:55.373Z,99628.86
2018-07-10T08:50:24.584Z,99633.56
2018-07-10T08:52:53.828Z,99624.23
2018-07-10T08:55:22.833Z,99625.73
2018-07-10T08:57:52.151Z,99629.17
2018-07-10T09:00:21.220Z,99617.31
2018-07-10T09:02:50.238Z,99629.71
2018-07-10T09:05:19.286Z,99622.05
2018-07-10T09:07:48.377Z,99618.81
2018-07-10T09:10:17.468Z,99620.80
2018-07-10T09:12:46.461Z,99615.20
2018-07-10T09:15:15.542Z,99619.09
2018-07-10T09:17:44.569Z,99622.83
2018-07-10T09:20:21.204Z,99623.82
2018-07-10T09:22:50.240Z,99620.09
2018-07-10T09:25:19.199Z,99613.88
2018-07-10T09:27:48.292Z,99615.30
2018-07-10T09:30:17.730Z,99612.17
2018-07-10T09:32:46.776Z,99621.13
2018-07-10T09:35:15.749Z,99622.77
2018-07-10T09:37:45.664Z,99626.16
2018-07-10T09:40:15.314Z,99616.84
2018-07-10T09:42:49.669Z,99617.03
2018-07-10T09:45:18.888Z,99611.34
2018-07-10T09:47:47.856Z,99621.81
2018-07-10T09:50:17.022Z,99616.66
2018-07-10T09:52:46.004Z,99618.14
2018-07-10T09:55:15.044Z,99611.92
2018-07-10T09:57:44.475Z,99614.70
2018-07-10T10:00:13.525Z,99610.06
2018-07-10T10:02:42.548Z,99608.53
2018-07-10T10:05:11.600Z,99606.92
2018-07-10T10:07:40.573Z,99601.23
2018-07-10T10:10:09.567Z,99593.56
2018-07-10T10:12:38.608Z,99593.83
2018-07-10T10:15:07.574Z,99597.80
2018-07-10T10:17:36.642Z,99595.63
2018-07-10T10:20:05.657Z,99595.38
2018-07-10T10:22:34.620Z,99588.91
2018-07-10T10:25:05.197Z,99584.19
2018-07-10T10:27:34.229Z,99582.13
2018-07-10T10:30:03.277Z,99589.44
2018-07-10T10:32:32.860Z,99578.84
2018-07-10T10:35:01.977Z,99581.52
2018-07-10T10:37:31.222Z,99584.56
2018-07-10T10:40:01.414Z,99582.58
2018-07-10T10:42:30.572Z,99585.19
2018-07-10T10:45:01.733Z,99583.28
2018-07-10T10:47:32.447Z,99575.67
2018-07-10T10:50:02.320Z,99582.23
2018-07-10T10:52:31.476Z,99567.64
2018-07-10T10:55:00.780Z,99568.20
2018-07-10T10:57:33.785Z,99573.89
2018-07-10T11:00:03.219Z,99577.61
2018-07-10T11:02:32.479Z,99566.34
2018-07-10T11:05:02.267Z,99576.73
2018-07-10T11:07:32.328Z,99574.11
2018-07-10T11:10:01.406Z,99571.52
2018-07-10T11:12:32.236Z,99575.57
2018-07-10T11:15:02.728Z,99567.62
2018-07-10T11:17:34.209Z,99569.13
2018-07-10T11:20:57.924Z,99568.06
2018-07-10T11:23:37.001Z,99559.78
2018-07-10T11:26:14.134Z,99558.29
2018-07-10T11:28:43.105Z,99560.73
2018-07-10T11:31:12.084Z,99557.06
2018-07-10T11:33:41.117Z,99565.67
2018-07-10T11:36:10.201Z,99562.56
2018-07-10T11:38:39.181Z,99563.00
2018-07-10T11:41:08.253Z,99551.98
2018-07-10T11:43:37.227Z,99552.76
2018-07-10T11:46:06.279Z,99556.58
2018-07-10T11:48:35.260Z,99553.70
2018-07-10T11:51:04.381Z,99551.95
2018-07-10T11:53:33.849Z,99553.64
2018-07-10T11:56:02.816Z,99555.81
2018-07-10T11:58:31.823Z,99555.55
2018-07-10T12:01:00.873Z,99549.98
2018-07-10T12:03:39.261Z,99556.89
2018-07-10T12:06:09.309Z,99560.72
2018-07-10T12:08:38.355Z,99553.50
2018-07-10T12:11:13.044Z,99552.21
2018-07-10T12:13:42.376Z,99527.31
2018-07-10T12:16:11.512Z,99557.58
2018-07-10T12:18:40.520Z,99564.38
2018-07-10T12:21:11.493Z,99558.66
2018-07-10T12:23:40.575Z,99561.14
2018-07-10T12:26:09.914Z,99560.88
2018-07-10T12:28:39.173Z,99554.82
2018-07-10T12:31:08.161Z,99557.34
2018-07-10T12:33:37.230Z,99564.72
2018-07-10T12:36:06.804Z,99549.70
2018-07-10T12:38:35.841Z,99544.28
2018-07-10T12:41:05.061Z,99542.77
2018-07-10T12:43:34.034Z,99537.95
2018-07-10T12:46:03.087Z,99545.68
2018-07-10T12:48:32.197Z,99545.90
2018-07-10T12:51:01.302Z,99553.91
2018-07-10T12:53:30.313Z,99550.63
2018-07-10T12:56:00.836Z,99544.44
2018-07-10T12:58:32.120Z,99543.91
2018-07-10T13:01:01.353Z,99541.88
2018-07-10T13:03:30.409Z,99542.05
2018-07-10T13:05:59.889Z,99546.07
2018-07-10T13:08:29.039Z,99551.45
2018-07-10T13:10:58.020Z,99545.81
2018-07-10T13:13:27.042Z,99546.67
2018-07-10T13:15:56.108Z,99546.55
2018-07-10T13:18:28.501Z,99544.37
2018-07-10T13:20:57.476Z,99547.23
2018-07-10T13:23:26.432Z,99547.85
2018-07-10T13:25:55.516Z,99552.56
2018-07-10T13:28:24.462Z,99551.86
2018-07-10T13:30:53.501Z,99546.95
2018-07-10T13:33:22.467Z,99548.45
2018-07-10T13:35:51.569Z,99551.77
2018-07-10T13:38:21.636Z,99556.04
2018-07-10T13:40:51.535Z,99547.38
2018-07-10T13:43:20.713Z,99548.44
2018-07-10T13:45:49.708Z,99549.16
2018-07-10T13:48:18.728Z,99547.66
2018-07-10T13:50:47.745Z,99538.30
2018-07-10T13:53:16.745Z,99541.02
2018-07-10T13:55:45.882Z,99533.88
2018-07-10T13:58:17.237Z,99536.27
2018-07-10T14:00:51.430Z,99537.00
2018-07-10T14:03:20.719Z,99532.64
2018-07-10T14:05:49.798Z,99527.25
2018-07-10T14:08:18.783Z,99526.78
2018-07-10T14:10:47.753Z,99525.23
2018-07-10T14:13:16.782Z,99515.28
2018-07-10T14:15:45.889Z,99515.92
2018-07-10T14:18:15.483Z,99519.09
2018-07-10T14:20:50.894Z,99516.75
2018-07-10T14:23:20.051Z,99516.08
2018-07-10T14:25:49.542Z,99480.81
2018-07-10T14:28:18.668Z,99520.54
2018-07-10T14:30:47.779Z,99529.98
2018-07-10T14:33:16.885Z,99529.45
2018-07-10T14:35:45.913Z,99528.89
2018-07-10T14:38:20.704Z,99525.25
2018-07-10T14:40:50.766Z,99523.87
2018-07-10T14:43:22.006Z,99522.20
2018-07-10T14:45:52.682Z,99527.16
2018-07-10T14:48:24.033Z,99533.79
2018-07-10T14:50:55.093Z,99542.06
2018-07-10T14:53:24.135Z,99532.56
2018-07-10T14:55:53.143Z,99535.36
2018-07-10T14:58:22.257Z,99528.16
2018-07-10T15:00:51.773Z,99526.28
2018-07-10T15:03:20.964Z,99526.22
2018-07-10T15:05:49.981Z,99526.91
2018-07-10T15:08:19.058Z,99517.22
2018-07-10T15:10:48.165Z,99517.84
2018-07-10T15:13:17.202Z,99516.59
2018-07-10T15:15:54.913Z,99525.40
2018-07-10T15:18:55.393Z,99529.80
2018-07-10T15:21:24.692Z,99534.72
2018-07-10T15:23:53.652Z,99533.34
2018-07-10T15:26:22.681Z,99527.05
2018-07-10T15:28:51.886Z,99529.48
2018-07-10T15:31:20.924Z,99524.64
2018-07-10T15:33:49.929Z,99529.82
2018-07-10T15:36:18.973Z,99536.02
2018-07-10T15:38:48.737Z,99536.30
2018-07-10T15:41:18.217Z,99530.31
2018-07-10T15:43:47.665Z,99532.07
2018-07-10T15:46:16.672Z,99542.58
2018-07-10T15:48:45.780Z,99538.53
2018-07-10T15:51:15.268Z,99541.32
2018-07-10T15:53:44.217Z,99544.06
2018-07-10T15:56:13.260Z,99542.69
2018-07-10T15:58:42.381Z,99535.30
2018-07-10T16:01:11.441Z,99534.44
2018-07-10T16:03:40.420Z,99540.49
2018-07-10T16:06:09.526Z,99541.52
2018-07-10T16:08:39.301Z,99547.48
2018-07-10T16:11:08.356Z,99543.59
2018-07-10T16:13:40.873Z,99549.59
2018-07-10T16:16:15.448Z,99551.52
2018-07-10T16:18:57.226Z,99553.68
2018-07-10T16:21:37.809Z,99548.00
2018-07-10T16:24:06.917Z,99544.47
2018-07-10T16:26:35.949Z,99548.68
2018-07-10T16:29:08.507Z,99546.52
2018-07-10T16:31:40.542Z,99549.84
2018-07-10T16:34:09.620Z,99551.22
2018-07-10T16:36:38.610Z,99550.67
2018-07-10T16:39:07.747Z,99554.52
2018-07-10T16:41:41.716Z,99554.27
2018-07-10T16:44:10.740Z,99551.00
2018-07-10T16:46:41.377Z,99554.58
2018-07-10T16:49:17.640Z,99556.53
2018-07-10T16:51:53.620Z,99551.88
2018-07-10T16:54:22.636Z,99558.98
2018-07-10T16:56:51.594Z,99560.91
2018-07-10T16:59:20.617Z,99564.19
2018-07-10T17:01:49.636Z,99539.43
2018-07-10T17:04:18.756Z,99565.78
2018-07-10T17:06:47.836Z,99567.66
2018-07-10T17:09:16.852Z,99570.09
2018-07-10T17:11:45.865Z,99569.77
2018-07-10T17:14:14.932Z,99570.29
2018-07-10T17:16:44.369Z,99575.17
2018-07-10T17:19:13.582Z,99577.86
2018-07-10T17:21:42.775Z,99582.77
2018-07-10T17:24:11.821Z,99586.02
2018-07-10T17:26:41.203Z,99585.95
2018-07-10T17:29:12.131Z,99588.08
2018-07-10T17:31:41.297Z,99589.41
2018-07-10T17:34:10.328Z,99596.18
2018-07-10T17:36:39.293Z,99601.92
2018-07-10T17:39:08.432Z,99599.95
2018-07-10T17:41:38.393Z,99601.53
2018-07-10T17:44:10.149Z,99596.22
2018-07-10T17:46:39.396Z,99593.96
2018-07-10T17:49:08.484Z,99597.69
2018-07-10T17:51:37.536Z,99601.70
2018-07-10T17:54:06.681Z,99608.15
2018-07-10T17:56:35.885Z,99608.91
2018-07-10T17:59:07.078Z,99600.87
2018-07-10T18:01:36.762Z,99601.88
2018-07-10T18:04:06.260Z,99604.56
2018-07-10T18:06:35.501Z,99601.76
2018-07-10T18:09:05.635Z,99604.45
2018-07-10T18:11:34.822Z,99608.72
2018-07-10T18:14:03.839Z,99609.72
2018-07-10T18:16:35.912Z,99608.55
2018-07-10T18:19:05.635Z,99619.69
2018-07-10T18:21:35.969Z,99622.02
2018-07-10T18:24:05.110Z,99617.07
2018-07-10T18:26:34.220Z,99627.42
2018-07-10T18:29:03.196Z,99629.88
2018-07-10T18:31:32.172Z,99630.75
2018-07-10T18:34:01.148Z,99629.14
2018-07-10T18:36:30.236Z,99628.85
2018-07-10T18:38:59.245Z,99631.88
2018-07-10T18:41:28.405Z,99631.28
2018-07-10T18:43:57.460Z,99637.33
2018-07-10T18:46:26.425Z,99642.81
2018-07-10T18:48:55.555Z,99649.94
2018-07-10T18:51:24.593Z,99645.38
2018-07-10T18:53:53.667Z,99647.91
2018-07-10T18:56:23.023Z,99641.91
2018-07-10T18:59:12.935Z,99652.06
2018-07-10T19:01:58.844Z,99655.58
2018-07-10T19:05:07.176Z,99665.95
2018-07-10T19:07:39.180Z,99656.11
2018-07-10T19:10:08.392Z,99661.29
2018-07-10T19:12:38.109Z,99660.95
2018-07-10T19:15:07.401Z,99659.05
2018-07-10T19:17:36.752Z,99661.00
2018-07-10T19:20:09.666Z,99665.95
2018-07-10T19:23:16.698Z,99671.21
2018-07-10T19:25:45.804Z,99674.00
2018-07-10T19:28:14.870Z,99670.48
2018-07-10T19:31:20.037Z,99672.97
2018-07-10T19:33:53.942Z,99672.77
2018-07-10T19:36:22.892Z,99673.97
2018-07-10T19:38:52.001Z,99679.50
2018-07-10T19:41:21.692Z,99677.38
2018-07-10T19:43:50.795Z,99667.27
2018-07-10T19:46:19.848Z,99670.55
2018-07-10T19:48:51.449Z,99666.14
2018-07-10T19:51:25.356Z,99669.66
2018-07-10T19:54:25.549Z,99671.82
2018-07-10T19:56:54.708Z,99673.35
2018-07-10T19:59:23.775Z,99635.73
2018-07-10T20:01:55.016Z,99677.80
2018-07-10T20:04:39.660Z,99670.33
2018-07-10T20:07:15.352Z,99672.89
2018-07-10T20:09:56.444Z,99674.16
2018-07-10T20:12:34.748Z,99673.47
2018-07-10T20:16:11.321Z,99673.61
2018-07-10T20:21:04.868Z,99675.03
2018-07-10T20:24:09.985Z,99677.44
2018-07-10T20:28:54.402Z,99670.97
2018-07-10T20:32:31.700Z,99672.06
2018-07-10T20:35:34.992Z,99673.30
2018-07-10T20:38:03.990Z,99673.17
2018-07-10T20:40:35.791Z,99678.52
2018-07-10T20:43:13.703Z,99682.53
2018-07-10T20:45:47.749Z,99686.55
2018-07-10T20:49:22.670Z,99691.13
2018-07-10T20:52:03.617Z,99692.05
2018-07-10T20:54:52.574Z,99692.67
2018-07-10T20:57:32.132Z,99682.14
2018-07-10T21:00:08.084Z,99684.75
2018-07-10T21:04:48.633Z,99692.55
2018-07-10T21:07:27.837Z,99682.93
2018-07-10T21:10:06.868Z,99692.67
2018-07-10T21:12:39.348Z,99688.22
2018-07-10T21:15:11.876Z,99690.33
2018-07-10T21:18:05.287Z,99689.23
2018-07-10T21:21:16.037Z,99689.83
2018-07-10T21:23:55.699Z,99688.70
2018-07-10T21:27:33.872Z,99689.43
2018-07-10T21:30:37.848Z,99684.64
2018-07-10T21:34:12.197Z,99675.50
2018-07-10T21:37:46.937Z,99685.48
2018-07-10T21:40:28.354Z,99673.81
2018-07-10T21:43:35.002Z,99676.53
2018-07-10T21:46:19.208Z,99677.30
2018-07-10T21:50:01.145Z,99678.06
2018-07-10T21:52:30.155Z,99682.32
2018-07-10T21:54:59.180Z,99685.31
2018-07-10T21:57:44.460Z,99687.67
2018-07-10T22:00:13.523Z,99688.44
2018-07-10T22:02:42.529Z,99690.33
2018-07-10T22:05:11.564Z,99686.47
2018-07-10T22:07:40.665Z,99686.67
2018-07-10T22:10:09.722Z,99683.80
2018-07-10T22:12:46.460Z,99689.68
2018-07-10T22:15:15.541Z,99688.73
2018-07-10T22:17:44.997Z,99685.42
2018-07-10T22:20:14.066Z,99681.03
2018-07-10T22:22:43.098Z,99679.83
2018-07-10T22:25:12.075Z,99674.34
2018-07-10T22:27:42.609Z,99667.77
2018-07-10T22:30:19.526Z,99678.81
2018-07-10T22:32:53.388Z,99679.58
2018-07-10T22:35:22.416Z,99682.77
2018-07-10T22:37:51.484Z,99684.98
2018-07-10T22:40:20.470Z,99682.16
2018-07-10T22:42:49.682Z,99693.35
2018-07-10T22:45:19.852Z,99690.02
2018-07-10T22:47:49.016Z,99688.25
2018-07-10T22:50:20.269Z,99697.78
2018-07-10T22:53:05.118Z,99692.79
2018-07-10T22:55:34.185Z,99694.98
2018-07-10T22:58:05.699Z,99687.64
2018-07-10T23:00:37.073Z,99685.38
2018-07-10T23:03:20.301Z,99687.23
2018-07-10T23:05:51.081Z,99696.53
2018-07-10T23:08:29.045Z,99701.86
2018-07-10T23:10:59.651Z,99697.17
2018-07-10T23:13:29.172Z,99705.27
2018-07-10T23:15:58.210Z,99705.27
2018-07-10T23:18:27.234Z,99715.62
2018-07-10T23:20:56.342Z,99716.23
2018-07-10T23:23:25.405Z,99713.28
2018-07-10T23:25:54.495Z,99709.50
2018-07-10T23:28:23.797Z,99714.19
2018-07-10T23:30:53.301Z,99704.66
2018-07-10T23:33:24.658Z,99707.91
2018-07-10T23:35:57.618Z,99707.38
2018-07-10T23:38:38.062Z,99706.06
2018-07-10T23:41:15.125Z,99695.44
2018-07-10T23:43:47.000Z,99690.56
2018-07-10T23:46:23.077Z,99695.85
2018-07-10T23:48:55.176Z,99696.16
2018-07-10T23:51:24.168Z,99698.46
2018-07-10T23:53:54.518Z,99694.68
2018-07-10T23:56:23.869Z,99701.56
2018-07-10T23:58:52.910Z,99707.54
